Aviation Digital Data Service (ADDS)

Output produced by METARs form (0302 UTC 07 June 2020)
found at http://aviationweather.gov/metar/data/
 
METAR text: KDKB 070255Z AUTO 06013G18KT 10SM CLR 16/09 A3010 RMK AO2 T01640093
Conditions at: KDKB (DE KALB , IL, US) observed 0255 UTC 07 June 2020
Temperature: 16.4°C (62°F)
Dewpoint: 9.3°C (49°F) [RH = 63%]
Pressure (altimeter): 30.10 inches Hg (1019.4 mb)
Winds: from the ENE (60 degrees) at 15 MPH (13 knots; 6.7 m/s)
gusting to 21 MPH (18 knots; 9.3 m/s)
Visibility: 10 or more miles (16+ km)
Ceiling: at least 12,000 feet AGL
Clouds: sky clear below 12,000 feet AGL
Weather: automated observation with no human augmentation;
there may or may not be significant weather present at this time